Wrightstown, Wisconsin
Current Conditions -  °F | °C
As of 6:10 PM on Monday 22 Dec 2014 (Local Time) from KGRB Reporting Station
Light Snow Light Snow  
Wind Chill: -3°   Ceiling: 700
Heat Index:   Visibility: 2mi
Dew Point:   Wind: 9mph
Humidity: 92%   Direction: 90°E
Pressure: 29.78"   Gusts: NA
Location:  44.33°N, 88.16°W
Report Text: KGRB 230010Z 09008KT 2SM -SN BR OVC007 01/00 A2978 RMK AO2 P0001 T00110000
Loading
Personal Weather Stations






























Interactive Weather Map New forecast layout! Learn more

10-Day Weather Forecast

Advertisements
Track Severe Weather on mobile